Terminal Aerodrome Forecast
Issued by NWS

Home | Current Version | Previous Version | Text Only | Print | Product List | Glossary On
Versions: 1 2 3 4 5 6 7 8 9 10 11 12 13 14
000
FTUS45 KPIH 220500
TAFSUN
TAF
KSUN 220520Z 2206/2306 VRB06KT P6SM -SHRA VCTS SCT040 OVC070CB
     FM221000 VRB06KT P6SM VCTS SCT040 BKN070CB
     FM221900 18008KT P6SM VCTS FEW050 BKN070CB
     FM230300 32007KT P6SM SCT100 BKN120
      AMD LTD TO CLD VIS AND WIND TIL 221300=

USA.gov is the U.S. government's official web portal to all federal, state and local government web resources and services.